Impacts METAR Board
IDs:

KSLC - Salt Lake City Intl, UT, US

Updated at: 1600 UTC 20 Aug 2019
Potential Impact None Slight Moderate High
Time 20/04Z 20/05Z 20/06Z 20/07Z 20/08Z 20/09Z 20/10Z 20/11Z 20/12Z 20/13Z 20/14Z 20/15Z 20/16Z
Temp80 77 77 76 76 73 76 73 72 71 74 79 82
Dewpt34 31 31 30 33 30 33 34 38 36 34 34 36
Altim29.99 29.99 29.99 30.00 30.02 30.02 30.03 30.04 30.05 30.06 30.07 30.08 30.08
VIS10 10 10 10 10 10 10 10 10 10 10 10 10
CIG-- -- -- -- -- -- -- -- -- -- -- -- --
CoverSCTSCTSCTSCTSCTSCTSCTSCTSCTFEWFEWFEWFEW
FltCatVFRVFRVFRVFRVFRVFRVFRVFRVFRVFRVFRVFRVFR
WX--------------------------
WDir120150160140140120140150150130150140140
WSpd7 7 9 10 6 9 12 6 10 10 10 11 13
WGst-- -- -- -- -- -- -- -- -- -- -- -- --
Raw hourly METARs
KSLC 200354Z 12007KT 10SM SCT180 27/01 A2999 RMK AO2 SLP090 T02670011
KSLC 200454Z 15007KT 10SM SCT180 25/M01 A2999 RMK AO2 SLP092 T02501006
KSLC 200554Z 16009KT 10SM SCT180 25/M01 A2999 RMK AO2 SLP091 T02501006 10356 20244 51008
KSLC 200654Z 14010KT 10SM SCT180 24/M01 A3000 RMK AO2 SLP094 T02441011 403610228
KSLC 200754Z 14006KT 10SM SCT180 24/01 A3002 RMK AO2 SLP101 T02440006
KSLC 200854Z 12009KT 10SM SCT180 23/M01 A3002 RMK AO2 SLP103 T02281011 51009
KSLC 200954Z 14012KT 10SM SCT180 24/01 A3003 RMK AO2 SLP102 T02440006
KSLC 201054Z 15006KT 10SM SCT180 23/01 A3004 RMK AO2 SLP106 T02280011
KSLC 201154Z 15010KT 10SM SCT180 22/03 A3005 RMK AO2 SLP110 T02220033 10256 20217 53006
KSLC 201254Z 13010KT 10SM FEW130 FEW150 22/02 A3006 RMK AO2 SLP115 T02170022
KSLC 201354Z 15010KT 10SM FEW170 FEW230 23/01 A3007 RMK AO2 SLP120 T02330011
KSLC 201454Z 14011KT 10SM FEW170 FEW230 26/01 A3008 RMK AO2 SLP125 T02610011 51012
KSLC 201554Z 14013KT 10SM FEW170 FEW230 28/02 A3008 RMK AO2 SLP127 T02780022



Page loaded:  16:32 UTC  |   09:32 AM Pacific  |   10:32 AM Mountain  |   11:32 AM Central  |   12:32 PM Eastern

 

ADVISORIES

FORECASTS

FORECASTS

OBSERVATIONS

USER TOOLS

ABOUT US